sensor_id;sensor_type;location;lat;lon;timestamp;pressure;altitude;pressure_sealevel;temperature;humidity
28267;BME280;15525;45.568;5.448;2023-05-22T00:02:05;97786.06;;;21.17;56.08
28267;BME280;15525;45.568;5.448;2023-05-22T00:04:30;97785.31;;;20.92;56.54
28267;BME280;15525;45.568;5.448;2023-05-22T00:06:56;97786.09;;;20.93;56.89
28267;BME280;15525;45.568;5.448;2023-05-22T00:09:24;97786.41;;;21.03;57.14
28267;BME280;15525;45.568;5.448;2023-05-22T00:11:50;97793.31;;;21.25;56.42
28267;BME280;15525;45.568;5.448;2023-05-22T00:14:15;97779.34;;;21.26;56.24
28267;BME280;15525;45.568;5.448;2023-05-22T00:16:41;97768.31;;;21.35;56.37
28267;BME280;15525;45.568;5.448;2023-05-22T00:19:07;97779.75;;;21.40;56.00
28267;BME280;15525;45.568;5.448;2023-05-22T00:21:40;97766.53;;;21.15;56.30
28267;BME280;15525;45.568;5.448;2023-05-22T00:24:06;97753.06;;;21.06;56.25
28267;BME280;15525;45.568;5.448;2023-05-22T00:26:32;97776.66;;;21.02;56.93
28267;BME280;15525;45.568;5.448;2023-05-22T00:28:57;97784.84;;;21.02;56.92
28267;BME280;15525;45.568;5.448;2023-05-22T00:31:23;97781.53;;;21.09;56.77
28267;BME280;15525;45.568;5.448;2023-05-22T00:33:48;97787.41;;;21.11;56.36
28267;BME280;15525;45.568;5.448;2023-05-22T00:36:14;97777.66;;;21.10;56.23
28267;BME280;15525;45.568;5.448;2023-05-22T00:38:39;97780.53;;;21.01;55.99
28267;BME280;15525;45.568;5.448;2023-05-22T00:41:05;97787.31;;;21.07;56.04
28267;BME280;15525;45.568;5.448;2023-05-22T00:43:32;97785.41;;;20.96;56.38
28267;BME280;15525;45.568;5.448;2023-05-22T00:45:58;97781.97;;;20.86;56.59
28267;BME280;15525;45.568;5.448;2023-05-22T00:48:24;97785.94;;;20.89;56.81
28267;BME280;15525;45.568;5.448;2023-05-22T00:50:50;97770.44;;;20.77;56.43
28267;BME280;15525;45.568;5.448;2023-05-22T00:53:18;97791.19;;;20.82;56.72
28267;BME280;15525;45.568;5.448;2023-05-22T00:55:44;97781.66;;;20.76;56.40
28267;BME280;15525;45.568;5.448;2023-05-22T00:58:13;97780.97;;;20.67;56.43
28267;BME280;15525;45.568;5.448;2023-05-22T01:00:40;97777.47;;;20.66;56.29
28267;BME280;15525;45.568;5.448;2023-05-22T01:03:09;97786.88;;;20.69;56.19
28267;BME280;15525;45.568;5.448;2023-05-22T01:05:38;97776.22;;;20.52;56.87
28267;BME280;15525;45.568;5.448;2023-05-22T01:08:05;97785.41;;;20.47;56.50
28267;BME280;15525;45.568;5.448;2023-05-22T01:10:32;97777.66;;;20.37;56.90
28267;BME280;15525;45.568;5.448;2023-05-22T01:13:12;97785.16;;;20.40;57.19
28267;BME280;15525;45.568;5.448;2023-05-22T01:15:43;97799.91;;;20.51;56.95
28267;BME280;15525;45.568;5.448;2023-05-22T01:18:19;97795.13;;;20.48;56.52
28267;BME280;15525;45.568;5.448;2023-05-22T01:21:23;97794.25;;;20.56;55.59
28267;BME280;15525;45.568;5.448;2023-05-22T01:32:20;97791.94;;;20.22;56.94
28267;BME280;15525;45.568;5.448;2023-05-22T01:34:48;97794.22;;;20.44;57.05
28267;BME280;15525;45.568;5.448;2023-05-22T01:37:17;97780.81;;;20.15;56.43
28267;BME280;15525;45.568;5.448;2023-05-22T01:39:44;97754.47;;;19.95;56.61
28267;BME280;15525;45.568;5.448;2023-05-22T01:42:11;97784.53;;;20.11;56.33
28267;BME280;15525;45.568;5.448;2023-05-22T01:44:36;97796.91;;;20.20;56.34
28267;BME280;15525;45.568;5.448;2023-05-22T01:47:02;97778.78;;;20.12;56.43
28267;BME280;15525;45.568;5.448;2023-05-22T01:49:31;97783.94;;;20.05;56.36
28267;BME280;15525;45.568;5.448;2023-05-22T01:52:04;97771.69;;;19.99;56.36
28267;BME280;15525;45.568;5.448;2023-05-22T01:54:54;97792.16;;;20.17;56.23
28267;BME280;15525;45.568;5.448;2023-05-22T01:57:58;97785.56;;;20.18;56.61
28267;BME280;15525;45.568;5.448;2023-05-22T02:00:27;97779.41;;;19.97;56.25
28267;BME280;15525;45.568;5.448;2023-05-22T02:03:04;97772.50;;;19.67;57.61
28267;BME280;15525;45.568;5.448;2023-05-22T02:05:33;97775.91;;;19.64;57.27
28267;BME280;15525;45.568;5.448;2023-05-22T02:08:01;97772.91;;;19.57;57.41
28267;BME280;15525;45.568;5.448;2023-05-22T02:10:28;97771.72;;;19.67;57.01
28267;BME280;15525;45.568;5.448;2023-05-22T02:12:56;97780.22;;;19.77;56.93
28267;BME280;15525;45.568;5.448;2023-05-22T02:15:22;97782.88;;;19.86;57.05
28267;BME280;15525;45.568;5.448;2023-05-22T02:17:47;97781.94;;;19.82;56.87
28267;BME280;15525;45.568;5.448;2023-05-22T02:20:14;97782.94;;;19.77;56.88
28267;BME280;15525;45.568;5.448;2023-05-22T02:22:45;97789.09;;;19.86;57.03
28267;BME280;15525;45.568;5.448;2023-05-22T02:25:12;97785.44;;;19.82;56.96
28267;BME280;15525;45.568;5.448;2023-05-22T02:27:45;97789.19;;;19.78;57.47
28267;BME280;15525;45.568;5.448;2023-05-22T02:30:13;97777.50;;;19.77;57.21
28267;BME280;15525;45.568;5.448;2023-05-22T02:32:39;97798.13;;;19.78;57.08
28267;BME280;15525;45.568;5.448;2023-05-22T02:35:05;97784.81;;;19.65;57.49
28267;BME280;15525;45.568;5.448;2023-05-22T02:37:31;97788.13;;;19.70;57.63
28267;BME280;15525;45.568;5.448;2023-05-22T02:39:57;97774.09;;;19.68;57.14
28267;BME280;15525;45.568;5.448;2023-05-22T02:42:22;97771.56;;;19.63;57.34
28267;BME280;15525;45.568;5.448;2023-05-22T02:44:48;97746.38;;;19.42;57.48
28267;BME280;15525;45.568;5.448;2023-05-22T02:47:13;97757.16;;;19.51;57.75
28267;BME280;15525;45.568;5.448;2023-05-22T02:49:39;97779.00;;;19.54;57.95
28267;BME280;15525;45.568;5.448;2023-05-22T02:52:05;97774.97;;;19.60;57.51
28267;BME280;15525;45.568;5.448;2023-05-22T02:54:30;97772.97;;;19.69;57.38
28267;BME280;15525;45.568;5.448;2023-05-22T02:56:56;97757.22;;;19.63;57.35
28267;BME280;15525;45.568;5.448;2023-05-22T02:59:21;97748.94;;;19.59;57.24
28267;BME280;15525;45.568;5.448;2023-05-22T03:01:47;97767.06;;;19.67;57.35
28267;BME280;15525;45.568;5.448;2023-05-22T03:04:12;97757.53;;;19.61;57.15
28267;BME280;15525;45.568;5.448;2023-05-22T03:06:38;97756.63;;;19.57;56.89
28267;BME280;15525;45.568;5.448;2023-05-22T03:09:04;97768.09;;;19.63;56.82
28267;BME280;15525;45.568;5.448;2023-05-22T03:11:30;97767.75;;;19.64;56.79
28267;BME280;15525;45.568;5.448;2023-05-22T03:13:56;97768.09;;;19.63;56.76
28267;BME280;15525;45.568;5.448;2023-05-22T03:16:21;97758.09;;;19.55;56.45
28267;BME280;15525;45.568;5.448;2023-05-22T03:18:49;97772.00;;;19.53;56.83
28267;BME280;15525;45.568;5.448;2023-05-22T03:21:14;97753.50;;;19.35;56.91
28267;BME280;15525;45.568;5.448;2023-05-22T03:23:40;97766.50;;;19.41;57.03
28267;BME280;15525;45.568;5.448;2023-05-22T03:26:05;97755.31;;;19.22;57.34
28267;BME280;15525;45.568;5.448;2023-05-22T03:28:31;97730.75;;;18.98;57.17
28267;BME280;15525;45.568;5.448;2023-05-22T03:30:56;97769.75;;;19.14;57.63
28267;BME280;15525;45.568;5.448;2023-05-22T03:33:22;97748.75;;;19.03;57.75
28267;BME280;15525;45.568;5.448;2023-05-22T03:35:47;97767.88;;;19.06;57.58
28267;BME280;15525;45.568;5.448;2023-05-22T03:38:12;97764.44;;;18.97;57.59
28267;BME280;15525;45.568;5.448;2023-05-22T03:40:38;97769.91;;;19.09;57.53
28267;BME280;15525;45.568;5.448;2023-05-22T03:43:03;97757.22;;;19.01;57.30
28267;BME280;15525;45.568;5.448;2023-05-22T03:45:29;97771.53;;;19.10;57.21
28267;BME280;15525;45.568;5.448;2023-05-22T03:47:54;97773.97;;;19.03;57.41
28267;BME280;15525;45.568;5.448;2023-05-22T03:50:20;97757.22;;;19.01;57.26
28267;BME280;15525;45.568;5.448;2023-05-22T03:52:45;97751.47;;;19.03;56.94
28267;BME280;15525;45.568;5.448;2023-05-22T03:55:10;97745.63;;;18.92;56.56
28267;BME280;15525;45.568;5.448;2023-05-22T03:57:36;97781.06;;;19.16;56.79
28267;BME280;15525;45.568;5.448;2023-05-22T04:00:02;97764.69;;;19.04;56.20
28267;BME280;15525;45.568;5.448;2023-05-22T04:02:34;97788.91;;;19.09;56.68
28267;BME280;15525;45.568;5.448;2023-05-22T04:05:07;97772.09;;;18.95;56.59
28267;BME280;15525;45.568;5.448;2023-05-22T04:07:33;97774.41;;;18.85;56.97
28267;BME280;15525;45.568;5.448;2023-05-22T04:09:59;97752.44;;;18.49;57.56
28267;BME280;15525;45.568;5.448;2023-05-22T04:12:24;97771.59;;;18.44;57.95
28267;BME280;15525;45.568;5.448;2023-05-22T04:14:49;97775.78;;;18.41;58.45
28267;BME280;15525;45.568;5.448;2023-05-22T04:17:15;97741.50;;;18.28;58.39
28267;BME280;15525;45.568;5.448;2023-05-22T04:19:40;97771.69;;;18.56;58.18
28267;BME280;15525;45.568;5.448;2023-05-22T04:22:06;97776.09;;;18.69;57.69
28267;BME280;15525;45.568;5.448;2023-05-22T04:24:31;97793.25;;;18.81;57.70
28267;BME280;15525;45.568;5.448;2023-05-22T04:26:57;97770.81;;;18.72;57.58
28267;BME280;15525;45.568;5.448;2023-05-22T04:29:24;97789.69;;;18.89;57.29
28267;BME280;15525;45.568;5.448;2023-05-22T04:31:50;97798.22;;;18.79;57.47
28267;BME280;15525;45.568;5.448;2023-05-22T04:34:18;97799.59;;;18.85;57.97
28267;BME280;15525;45.568;5.448;2023-05-22T04:36:44;97800.41;;;18.86;57.54
28267;BME280;15525;45.568;5.448;2023-05-22T04:39:10;97811.91;;;18.83;57.51
28267;BME280;15525;45.568;5.448;2023-05-22T04:41:36;97801.19;;;18.86;57.31
28267;BME280;15525;45.568;5.448;2023-05-22T04:44:03;97792.59;;;18.84;57.14
28267;BME280;15525;45.568;5.448;2023-05-22T04:46:28;97802.00;;;18.87;57.26
28267;BME280;15525;45.568;5.448;2023-05-22T04:48:54;97805.00;;;18.94;57.30
28267;BME280;15525;45.568;5.448;2023-05-22T04:51:19;97798.31;;;18.91;57.25
28267;BME280;15525;45.568;5.448;2023-05-22T04:53:47;97790.31;;;18.95;57.17
28267;BME280;15525;45.568;5.448;2023-05-22T04:56:13;97794.47;;;18.92;57.26
28267;BME280;15525;45.568;5.448;2023-05-22T04:58:39;97804.28;;;19.05;57.38
28267;BME280;15525;45.568;5.448;2023-05-22T05:01:04;97779.66;;;18.90;57.17
28267;BME280;15525;45.568;5.448;2023-05-22T05:03:30;97791.63;;;18.89;57.37
28267;BME280;15525;45.568;5.448;2023-05-22T05:05:55;97801.59;;;18.97;57.46
28267;BME280;15525;45.568;5.448;2023-05-22T05:08:21;97784.41;;;18.93;57.45
28267;BME280;15525;45.568;5.448;2023-05-22T05:10:46;97782.09;;;19.03;57.05
28267;BME280;15525;45.568;5.448;2023-05-22T05:13:11;97784.69;;;19.20;57.02
28267;BME280;15525;45.568;5.448;2023-05-22T05:15:37;97794.84;;;19.32;56.80
28267;BME280;15525;45.568;5.448;2023-05-22T05:18:02;97787.53;;;19.32;56.76
28267;BME280;15525;45.568;5.448;2023-05-22T05:20:28;97790.16;;;19.41;56.66
28267;BME280;15525;45.568;5.448;2023-05-22T05:22:54;97782.22;;;19.36;56.78
28267;BME280;15525;45.568;5.448;2023-05-22T05:25:20;97792.78;;;19.49;56.82
28267;BME280;15525;45.568;5.448;2023-05-22T05:27:45;97760.38;;;19.32;56.96
28267;BME280;15525;45.568;5.448;2023-05-22T05:30:11;97789.94;;;19.66;56.97
28267;BME280;15525;45.568;5.448;2023-05-22T05:32:37;97780.91;;;19.74;56.78
28267;BME280;15525;45.568;5.448;2023-05-22T05:35:02;97790.28;;;19.97;56.54
28267;BME280;15525;45.568;5.448;2023-05-22T05:37:28;97791.44;;;20.08;56.36
28267;BME280;15525;45.568;5.448;2023-05-22T05:39:53;97804.59;;;20.18;56.35
28267;BME280;15525;45.568;5.448;2023-05-22T05:42:19;97795.13;;;20.24;56.18
28267;BME280;15525;45.568;5.448;2023-05-22T05:44:44;97788.44;;;20.22;56.38
28267;BME280;15525;45.568;5.448;2023-05-22T05:47:10;97809.63;;;20.40;56.09
28267;BME280;15525;45.568;5.448;2023-05-22T05:49:35;97794.13;;;20.41;56.30
28267;BME280;15525;45.568;5.448;2023-05-22T05:52:01;97797.19;;;20.51;56.22
28267;BME280;15525;45.568;5.448;2023-05-22T05:54:26;97800.91;;;20.47;56.57
28267;BME280;15525;45.568;5.448;2023-05-22T05:56:52;97797.50;;;20.62;56.32
28267;BME280;15525;45.568;5.448;2023-05-22T05:59:17;97812.03;;;20.78;56.13
28267;BME280;15525;45.568;5.448;2023-05-22T06:01:44;97806.59;;;20.90;56.39
28267;BME280;15525;45.568;5.448;2023-05-22T06:04:11;97789.47;;;21.02;55.96
28267;BME280;15525;45.568;5.448;2023-05-22T06:06:36;97801.03;;;21.23;55.77
28267;BME280;15525;45.568;5.448;2023-05-22T06:09:04;97791.50;;;21.17;55.68
28267;BME280;15525;45.568;5.448;2023-05-22T06:11:31;97794.19;;;21.29;55.73
28267;BME280;15525;45.568;5.448;2023-05-22T06:13:56;97785.31;;;21.44;55.91
28267;BME280;15525;45.568;5.448;2023-05-22T06:16:23;97807.94;;;21.72;55.32
28267;BME280;15525;45.568;5.448;2023-05-22T06:18:49;97802.00;;;21.82;55.35
28267;BME280;15525;45.568;5.448;2023-05-22T06:21:19;97793.91;;;21.85;55.06
28267;BME280;15525;45.568;5.448;2023-05-22T06:23:49;97806.91;;;22.04;55.23
28267;BME280;15525;45.568;5.448;2023-05-22T06:26:15;97805.69;;;22.17;54.91
28267;BME280;15525;45.568;5.448;2023-05-22T06:28:40;97792.47;;;22.19;54.84
28267;BME280;15525;45.568;5.448;2023-05-22T06:31:06;97812.13;;;22.40;54.77
28267;BME280;15525;45.568;5.448;2023-05-22T06:33:33;97817.25;;;22.57;54.59
28267;BME280;15525;45.568;5.448;2023-05-22T06:35:59;97822.56;;;22.50;54.63
28267;BME280;15525;45.568;5.448;2023-05-22T06:38:24;97813.16;;;22.63;54.68
28267;BME280;15525;45.568;5.448;2023-05-22T06:40:50;97820.97;;;22.64;54.95
28267;BME280;15525;45.568;5.448;2023-05-22T06:43:17;97821.13;;;22.87;54.68
28267;BME280;15525;45.568;5.448;2023-05-22T06:45:42;97794.53;;;22.84;54.24
28267;BME280;15525;45.568;5.448;2023-05-22T06:48:08;97810.72;;;23.08;54.02
28267;BME280;15525;45.568;5.448;2023-05-22T06:50:33;97807.81;;;23.01;54.23
28267;BME280;15525;45.568;5.448;2023-05-22T06:52:58;97826.38;;;23.26;53.98
28267;BME280;15525;45.568;5.448;2023-05-22T06:55:24;97809.06;;;23.38;53.68
28267;BME280;15525;45.568;5.448;2023-05-22T06:57:50;97819.44;;;23.67;53.34
28267;BME280;15525;45.568;5.448;2023-05-22T07:00:15;97816.00;;;23.89;52.94
28267;BME280;15525;45.568;5.448;2023-05-22T07:02:42;97812.78;;;24.02;52.68
28267;BME280;15525;45.568;5.448;2023-05-22T07:05:07;97824.94;;;24.05;52.79
28267;BME280;15525;45.568;5.448;2023-05-22T07:07:33;97782.19;;;23.78;52.93
28267;BME280;15525;45.568;5.448;2023-05-22T07:09:58;97792.72;;;23.95;52.70
28267;BME280;15525;45.568;5.448;2023-05-22T07:12:24;97811.84;;;24.14;52.38
28267;BME280;15525;45.568;5.448;2023-05-22T07:14:52;97824.06;;;24.42;52.22
28267;BME280;15525;45.568;5.448;2023-05-22T07:17:18;97822.19;;;24.46;51.77
28267;BME280;15525;45.568;5.448;2023-05-22T07:19:46;97829.94;;;24.41;52.07
28267;BME280;15525;45.568;5.448;2023-05-22T07:22:12;97833.56;;;24.67;51.70
28267;BME280;15525;45.568;5.448;2023-05-22T07:24:38;97833.56;;;24.67;51.59
28267;BME280;15525;45.568;5.448;2023-05-22T07:27:03;97823.69;;;24.85;51.11
28267;BME280;15525;45.568;5.448;2023-05-22T07:29:29;97839.13;;;24.97;50.82
28267;BME280;15525;45.568;5.448;2023-05-22T07:31:55;97846.63;;;25.26;50.93
28267;BME280;15525;45.568;5.448;2023-05-22T07:34:20;97846.44;;;25.38;50.13
28267;BME280;15525;45.568;5.448;2023-05-22T07:36:47;97837.09;;;25.42;50.32
28267;BME280;15525;45.568;5.448;2023-05-22T07:39:12;97837.03;;;25.65;49.69
28267;BME280;15525;45.568;5.448;2023-05-22T07:41:38;97839.59;;;25.80;49.78
28267;BME280;15525;45.568;5.448;2023-05-22T07:44:04;97848.78;;;25.95;49.53
28267;BME280;15525;45.568;5.448;2023-05-22T07:46:29;97849.63;;;25.99;49.40
28267;BME280;15525;45.568;5.448;2023-05-22T07:48:55;97845.06;;;25.80;49.52
28267;BME280;15525;45.568;5.448;2023-05-22T07:51:21;97849.34;;;26.07;48.94
28267;BME280;15525;45.568;5.448;2023-05-22T07:53:46;97835.88;;;26.32;48.46
28267;BME280;15525;45.568;5.448;2023-05-22T07:56:12;97833.25;;;26.79;47.54
28267;BME280;15525;45.568;5.448;2023-05-22T07:58:37;97838.19;;;27.10;46.87
28267;BME280;15525;45.568;5.448;2023-05-22T08:01:05;97834.72;;;26.73;47.85
28267;BME280;15525;45.568;5.448;2023-05-22T08:03:31;97835.88;;;27.15;47.25
28267;BME280;15525;45.568;5.448;2023-05-22T08:05:56;97829.38;;;27.37;46.77
28267;BME280;15525;45.568;5.448;2023-05-22T08:08:22;97836.97;;;27.58;46.30
28267;BME280;15525;45.568;5.448;2023-05-22T08:10:48;97843.22;;;27.51;46.27
28267;BME280;15525;45.568;5.448;2023-05-22T08:13:13;97843.84;;;27.27;46.75
28267;BME280;15525;45.568;5.448;2023-05-22T08:15:41;97849.09;;;27.50;46.52
28267;BME280;15525;45.568;5.448;2023-05-22T08:18:06;97837.16;;;27.93;46.01
28267;BME280;15525;45.568;5.448;2023-05-22T08:20:31;97828.22;;;28.27;45.33
28267;BME280;15525;45.568;5.448;2023-05-22T08:22:57;97837.84;;;27.76;45.96
28267;BME280;15525;45.568;5.448;2023-05-22T08:25:23;97828.59;;;26.90;46.74
28267;BME280;15525;45.568;5.448;2023-05-22T08:27:48;97830.75;;;26.63;47.03
28267;BME280;15525;45.568;5.448;2023-05-22T08:30:14;97830.09;;;26.40;47.58
28267;BME280;15525;45.568;5.448;2023-05-22T08:32:40;97833.16;;;26.72;46.99
28267;BME280;15525;45.568;5.448;2023-05-22T08:35:05;97827.03;;;26.89;46.66
28267;BME280;15525;45.568;5.448;2023-05-22T08:37:31;97827.31;;;26.37;47.78
28267;BME280;15525;45.568;5.448;2023-05-22T08:39:56;97829.50;;;26.21;48.24
28267;BME280;15525;45.568;5.448;2023-05-22T08:42:22;97831.94;;;25.67;49.51
28267;BME280;15525;45.568;5.448;2023-05-22T08:44:48;97833.25;;;25.47;49.70
28267;BME280;15525;45.568;5.448;2023-05-22T08:47:14;97840.31;;;25.77;49.19
28267;BME280;15525;45.568;5.448;2023-05-22T08:49:40;97837.44;;;26.66;47.36
28267;BME280;15525;45.568;5.448;2023-05-22T08:52:15;97835.59;;;27.24;46.21
28267;BME280;15525;45.568;5.448;2023-05-22T08:54:47;97835.31;;;27.43;45.99
28267;BME280;15525;45.568;5.448;2023-05-22T08:57:14;97833.91;;;27.77;44.91
28267;BME280;15525;45.568;5.448;2023-05-22T08:59:40;97830.84;;;27.89;44.88
28267;BME280;15525;45.568;5.448;2023-05-22T09:02:07;97824.47;;;27.74;45.23
28267;BME280;15525;45.568;5.448;2023-05-22T09:04:33;97821.28;;;27.69;45.25
28267;BME280;15525;45.568;5.448;2023-05-22T09:06:59;97828.31;;;27.56;45.80
28267;BME280;15525;45.568;5.448;2023-05-22T09:09:30;97835.22;;;27.32;46.08
28267;BME280;15525;45.568;5.448;2023-05-22T09:11:57;97839.31;;;27.02;46.76
28267;BME280;15525;45.568;5.448;2023-05-22T09:14:22;97833.38;;;26.96;46.73
28267;BME280;15525;45.568;5.448;2023-05-22T09:16:50;97839.34;;;26.58;47.22
28267;BME280;15525;45.568;5.448;2023-05-22T09:19:17;97837.13;;;26.78;47.02
28267;BME280;15525;45.568;5.448;2023-05-22T09:21:42;97841.28;;;27.59;45.23
28267;BME280;15525;45.568;5.448;2023-05-22T09:24:08;97843.34;;;27.79;44.93
28267;BME280;15525;45.568;5.448;2023-05-22T09:26:34;97850.75;;;27.65;45.32
28267;BME280;15525;45.568;5.448;2023-05-22T09:29:00;97852.78;;;27.78;44.39
28267;BME280;15525;45.568;5.448;2023-05-22T09:31:27;97839.63;;;27.44;45.09
28267;BME280;15525;45.568;5.448;2023-05-22T09:33:53;97838.53;;;27.59;44.96
28267;BME280;15525;45.568;5.448;2023-05-22T09:36:20;97842.47;;;27.58;44.96
28267;BME280;15525;45.568;5.448;2023-05-22T09:38:46;97847.16;;;27.57;45.07
28267;BME280;15525;45.568;5.448;2023-05-22T09:41:11;97840.16;;;27.74;44.79
28267;BME280;15525;45.568;5.448;2023-05-22T09:43:37;97838.50;;;27.52;45.13
28267;BME280;15525;45.568;5.448;2023-05-22T09:46:02;97841.56;;;27.40;45.54
28267;BME280;15525;45.568;5.448;2023-05-22T09:48:30;97841.88;;;27.89;44.88
28267;BME280;15525;45.568;5.448;2023-05-22T09:50:58;97853.75;;;28.14;44.12
28267;BME280;15525;45.568;5.448;2023-05-22T09:53:25;97853.25;;;26.79;46.69
28267;BME280;15525;45.568;5.448;2023-05-22T09:55:54;97854.19;;;26.97;46.83
28267;BME280;15525;45.568;5.448;2023-05-22T09:58:22;97842.53;;;27.75;45.37
28267;BME280;15525;45.568;5.448;2023-05-22T10:00:50;97825.75;;;27.91;44.84
28267;BME280;15525;45.568;5.448;2023-05-22T10:03:21;97839.25;;;28.27;44.29
28267;BME280;15525;45.568;5.448;2023-05-22T10:05:50;97829.50;;;28.69;43.71
28267;BME280;15525;45.568;5.448;2023-05-22T10:08:22;97841.75;;;28.99;42.81
28267;BME280;15525;45.568;5.448;2023-05-22T10:10:50;97836.59;;;28.98;43.00
28267;BME280;15525;45.568;5.448;2023-05-22T10:13:19;97837.38;;;28.95;43.44
28267;BME280;15525;45.568;5.448;2023-05-22T10:15:49;97831.44;;;28.47;43.92
28267;BME280;15525;45.568;5.448;2023-05-22T10:18:15;97827.53;;;27.62;45.58
28267;BME280;15525;45.568;5.448;2023-05-22T10:20:42;97821.50;;;27.36;46.35
28267;BME280;15525;45.568;5.448;2023-05-22T10:23:11;97827.47;;;27.48;46.41
28267;BME280;15525;45.568;5.448;2023-05-22T10:25:38;97820.84;;;28.88;43.71
28267;BME280;15525;45.568;5.448;2023-05-22T10:28:04;97825.16;;;29.38;42.25
28267;BME280;15525;45.568;5.448;2023-05-22T10:30:40;97826.81;;;30.35;40.67
28267;BME280;15525;45.568;5.448;2023-05-22T10:33:13;97819.59;;;29.69;41.73
28267;BME280;15525;45.568;5.448;2023-05-22T10:40:40;97816.38;;;28.13;44.29
28267;BME280;15525;45.568;5.448;2023-05-22T10:43:09;97822.28;;;28.15;44.01
28267;BME280;15525;45.568;5.448;2023-05-22T10:45:34;97819.56;;;28.18;44.19
28267;BME280;15525;45.568;5.448;2023-05-22T10:48:08;97820.88;;;28.98;42.81
28267;BME280;15525;45.568;5.448;2023-05-22T10:50:34;97816.91;;;29.27;42.39
28267;BME280;15525;45.568;5.448;2023-05-22T10:55:57;97809.03;;;28.59;43.38
28267;BME280;15525;45.568;5.448;2023-05-22T10:58:31;97809.41;;;28.72;43.66
28267;BME280;15525;45.568;5.448;2023-05-22T11:01:06;97805.09;;;28.85;42.98
28267;BME280;15525;45.568;5.448;2023-05-22T11:06:40;97803.13;;;29.20;42.02
28267;BME280;15525;45.568;5.448;2023-05-22T11:09:39;97795.44;;;29.91;40.49
28267;BME280;15525;45.568;5.448;2023-05-22T11:15:02;97797.47;;;29.80;40.40
28267;BME280;15525;45.568;5.448;2023-05-22T11:17:31;97788.59;;;30.23;40.57
28267;BME280;15525;45.568;5.448;2023-05-22T11:20:04;97785.25;;;30.53;39.79
28267;BME280;15525;45.568;5.448;2023-05-22T11:22:34;97788.97;;;30.25;40.30
28267;BME280;15525;45.568;5.448;2023-05-22T11:25:03;97777.09;;;30.32;39.83
28267;BME280;15525;45.568;5.448;2023-05-22T11:27:29;97788.31;;;30.00;40.80
28267;BME280;15525;45.568;5.448;2023-05-22T11:29:55;97778.66;;;30.36;40.10
28267;BME280;15525;45.568;5.448;2023-05-22T11:32:22;97773.88;;;30.40;39.70
28267;BME280;15525;45.568;5.448;2023-05-22T11:34:48;97777.69;;;30.60;39.55
28267;BME280;15525;45.568;5.448;2023-05-22T11:37:16;97779.72;;;30.53;39.34
28267;BME280;15525;45.568;5.448;2023-05-22T11:39:50;97769.00;;;30.58;39.01
28267;BME280;15525;45.568;5.448;2023-05-22T11:42:19;97765.69;;;30.81;39.28
28267;BME280;15525;45.568;5.448;2023-05-22T11:44:44;97777.72;;;31.04;38.61
28267;BME280;15525;45.568;5.448;2023-05-22T11:47:11;97768.66;;;31.41;38.17
28267;BME280;15525;45.568;5.448;2023-05-22T11:49:37;97759.84;;;31.16;38.72
28267;BME280;15525;45.568;5.448;2023-05-22T11:52:03;97760.78;;;30.99;38.81
28267;BME280;15525;45.568;5.448;2023-05-22T11:54:31;97766.19;;;30.65;38.71
28267;BME280;15525;45.568;5.448;2023-05-22T11:56:57;97760.63;;;30.72;38.84
28267;BME280;15525;45.568;5.448;2023-05-22T11:59:22;97763.34;;;30.18;39.22
28267;BME280;15525;45.568;5.448;2023-05-22T12:01:49;97768.88;;;30.21;39.68
28267;BME280;15525;45.568;5.448;2023-05-22T12:04:14;97745.94;;;30.31;39.21
28267;BME280;15525;45.568;5.448;2023-05-22T12:06:40;97713.72;;;31.39;37.43
28267;BME280;15525;45.568;5.448;2023-05-22T12:09:06;97736.47;;;32.44;36.47
28267;BME280;15525;45.568;5.448;2023-05-22T12:11:36;97731.78;;;33.52;35.61
28267;BME280;15525;45.568;5.448;2023-05-22T12:14:03;97729.94;;;33.65;34.43
28267;BME280;15525;45.568;5.448;2023-05-22T12:16:33;97726.38;;;33.03;35.24
28267;BME280;15525;45.568;5.448;2023-05-22T12:19:04;97735.56;;;32.27;35.16
28267;BME280;15525;45.568;5.448;2023-05-22T12:21:30;97727.69;;;30.41;37.34
28267;BME280;15525;45.568;5.448;2023-05-22T12:23:56;97734.22;;;30.13;39.07
28267;BME280;15525;45.568;5.448;2023-05-22T12:26:22;97734.88;;;31.19;37.42
28267;BME280;15525;45.568;5.448;2023-05-22T12:28:51;97722.28;;;30.74;37.80
28267;BME280;15525;45.568;5.448;2023-05-22T12:31:20;97721.59;;;30.12;39.36
28267;BME280;15525;45.568;5.448;2023-05-22T12:33:46;97730.25;;;30.14;39.48
28267;BME280;15525;45.568;5.448;2023-05-22T12:36:12;97715.06;;;30.87;38.22
28267;BME280;15525;45.568;5.448;2023-05-22T12:38:37;97720.59;;;30.87;37.80
28267;BME280;15525;45.568;5.448;2023-05-22T12:41:06;97717.88;;;30.80;38.32
28267;BME280;15525;45.568;5.448;2023-05-22T12:43:31;97709.41;;;31.38;37.35
28267;BME280;15525;45.568;5.448;2023-05-22T12:45:56;97709.16;;;32.42;36.02
28267;BME280;15525;45.568;5.448;2023-05-22T12:48:22;97731.97;;;32.76;35.53
28267;BME280;15525;45.568;5.448;2023-05-22T12:50:47;97724.38;;;32.04;36.62
28267;BME280;15525;45.568;5.448;2023-05-22T12:53:13;97724.09;;;31.65;36.78
28267;BME280;15525;45.568;5.448;2023-05-22T12:55:39;97718.09;;;31.37;37.09
28267;BME280;15525;45.568;5.448;2023-05-22T12:58:05;97713.13;;;31.25;37.01
28267;BME280;15525;45.568;5.448;2023-05-22T13:00:31;97721.66;;;31.00;37.46
28267;BME280;15525;45.568;5.448;2023-05-22T13:02:56;97706.47;;;30.78;38.04
28267;BME280;15525;45.568;5.448;2023-05-22T13:05:22;97708.56;;;30.09;38.95
28267;BME280;15525;45.568;5.448;2023-05-22T13:07:48;97710.19;;;30.98;37.52
28267;BME280;15525;45.568;5.448;2023-05-22T13:10:13;97700.16;;;31.48;36.51
28267;BME280;15525;45.568;5.448;2023-05-22T13:12:39;97683.47;;;31.85;35.86
28267;BME280;15525;45.568;5.448;2023-05-22T13:15:06;97704.53;;;31.49;35.65
28267;BME280;15525;45.568;5.448;2023-05-22T13:17:31;97691.94;;;31.08;36.28
28267;BME280;15525;45.568;5.448;2023-05-22T13:19:57;97691.59;;;32.26;35.48
28267;BME280;15525;45.568;5.448;2023-05-22T13:22:23;97676.56;;;31.70;35.52